Sarfaq Ittuk — OWDD — position and weather

sailwx.info

Track history (hours):
 
Tides and Currents Weather Stations Pressure Air Temp Water Temp Dewpoint Dewpoint Depression Visibility Wind Speed Wind Dir Waves Ship Positions

Sarfaq Ittuk

Last reported at 2017-Apr-29 14:22 UTC. Time now 2017-Apr-30 18:50 UTC.
Position N 65°54' W 053°34'.

Length 73 m; beam 11.1 m; draft 3.7 m.

Type: Passenger vessel. MMSI: 331037000.

Date/timePositionNaut miles runAvg speedWind from/ knotsBaromVisibWave heightAir tempDewpointWater temp
2017-Apr-29 14:22N 65°54' W 053°34'8 5.3
2017-Apr-29 12:50N 65°49' W 053°19'44 7.3
2017-Apr-29 06:46N 65°06' W 052°49'3 9.8
2017-Apr-29 06:30N 65°04' W 052°48'5 9.5
2017-Apr-29 06:00N 64°59' W 052°46'5 9.4
2017-Apr-29 05:30N 64°54' W 052°44'5 9.9
2017-Apr-29 05:00N 64°49' W 052°42'510.1
2017-Apr-29 04:30N 64°45' W 052°40'510.1
2017-Apr-29 04:00N 64°40' W 052°37'510.2
2017-Apr-29 03:30N 64°35' W 052°35'510.6
2017-Apr-29 03:01N 64°29' W 052°33'510.9
2017-Apr-29 02:30N 64°24' W 052°30'510.5
2017-Apr-29 02:00N 64°19' W 052°27'510.3
2017-Apr-29 01:30N 64°14' W 052°24'510.1
2017-Apr-29 01:00N 64°09' W 052°20'510.4
2017-Apr-29 00:30N 64°05' W 052°13'4 8.6
2017-Apr-29 00:00N 64°05' W 052°03'611.4
2017-Apr-28 23:30N 64°08' W 051°51'4 8.6
2017-Apr-28 23:01N 64°10' W 051°43'0 0.0
2017-Apr-28 22:31N 64°10' W 051°43'0 0.0
2017-Apr-28 22:00N 64°10' W 051°43'0 0.0
2017-Apr-28 21:30N 64°10' W 051°43'0 0.0
2017-Apr-28 21:00N 64°10' W 051°43'0 0.0
2017-Apr-28 20:30N 64°10' W 051°43'0 0.0
2017-Apr-28 20:00N 64°10' W 051°43'0 0.0
2017-Apr-28 19:31N 64°10' W 051°43'0 0.0
2017-Apr-28 19:00N 64°10' W 051°43'0 0.0
2017-Apr-28 18:30N 64°10' W 051°43'0 0.0
2017-Apr-28 18:00N 64°10' W 051°43'0 0.0
2017-Apr-28 17:30N 64°10' W 051°43'0 0.0
2017-Apr-28 17:01N 64°10' W 051°43'0 0.0
2017-Apr-28 16:30N 64°10' W 051°43'0 0.0
2017-Apr-28 16:00N 64°10' W 051°43'0 0.0
2017-Apr-28 15:30N 64°10' W 051°43'0 0.0
2017-Apr-28 15:01N 64°10' W 051°43'0 0.0
2017-Apr-28 14:00N 64°10' W 051°43'0 0.0
2017-Apr-28 13:31N 64°10' W 051°43'0 0.0
2017-Apr-28 13:00N 64°10' W 051°43'0 0.0
2017-Apr-28 12:30N 64°10' W 051°43'0 0.0
2017-Apr-28 12:00N 64°10' W 051°43'0 0.0
2017-Apr-28 11:30N 64°10' W 051°43'0 0.0
2017-Apr-28 11:00N 64°10' W 051°43'0 0.0
2017-Apr-28 10:30N 64°10' W 051°43'0 0.0
2017-Apr-28 10:00N 64°10' W 051°43'0 0.0
2017-Apr-28 09:30N 64°10' W 051°43'1 2.8
2017-Apr-28 09:00N 64°09' W 051°42'510.2
2017-Apr-28 08:31N 64°04' W 051°38'510.0
2017-Apr-28 08:00N 63°59' W 051°40'6 8.4
2017-Apr-28 07:20N 63°55' W 051°33'3 9.2
2017-Apr-28 07:00N 63°52' W 051°34'5 9.2
2017-Apr-28 06:30N 63°47' W 051°35'5 9.2
2017-Apr-28 06:00N 63°43' W 051°38'  
2017-Apr-25 14:47N 63°29' W 051°33'1510.6
2017-Apr-25 13:20N 63°44' W 051°36'412.2
2017-Apr-25 13:00N 63°48' W 051°35'612.5
2017-Apr-25 12:30N 63°54' W 051°33'612.3
2017-Apr-25 12:00N 63°59' W 051°40'612.5
2017-Apr-25 11:30N 64°05' W 051°39'510.3
2017-Apr-25 11:01N 64°10' W 051°43'0 0.0
2017-Apr-25 10:30N 64°10' W 051°43'0 0.0
2017-Apr-25 10:00N 64°10' W 051°43'0 0.0
2017-Apr-25 09:30N 64°10' W 051°43'0 0.0
2017-Apr-25 09:00N 64°10' W 051°43'2 4.1
2017-Apr-25 08:30N 64°09' W 051°47'4 8.9
2017-Apr-25 08:00N 64°07' W 051°56'510.6
2017-Apr-25 07:30N 64°04' W 052°06'510.4
2017-Apr-25 07:00N 64°07' W 052°16'611.3
2017-Apr-25 06:31N 64°12' W 052°23'611.2
2017-Apr-25 06:00N 64°17' W 052°26'611.3
2017-Apr-25 05:30N 64°23' W 052°29'611.5
2017-Apr-25 05:00N 64°28' W 052°32'611.3
2017-Apr-25 04:30N 64°34' W 052°35'611.7
2017-Apr-25 04:00N 64°40' W 052°37'611.9
2017-Apr-25 03:30N 64°46' W 052°40'611.9
2017-Apr-25 03:00N 64°51' W 052°43'611.9
2017-Apr-25 02:31N 64°57' W 052°45'612.0
2017-Apr-25 02:00N 65°03' W 052°48'611.5
2017-Apr-25 01:31N 65°09' W 052°51'  
2017-Apr-22 06:06N 65°01' W 052°47'110.6
2017-Apr-22 06:01N 65°00' W 052°47'510.3
2017-Apr-22 05:30N 64°55' W 052°44'510.4
2017-Apr-22 05:00N 64°50' W 052°42'510.4
2017-Apr-22 04:30N 64°45' W 052°40'510.5
2017-Apr-22 04:00N 64°40' W 052°37'510.3
2017-Apr-22 03:31N 64°35' W 052°35'510.4
2017-Apr-22 03:00N 64°29' W 052°33'510.5
2017-Apr-22 02:30N 64°24' W 052°30'510.4
2017-Apr-22 02:01N 64°19' W 052°27'510.5
2017-Apr-22 01:31N 64°14' W 052°24'510.7
2017-Apr-22 01:00N 64°09' W 052°20'510.8
2017-Apr-22 00:30N 64°05' W 052°12'4 8.6
2017-Apr-22 00:01N 64°05' W 052°02'611.1
2017-Apr-21 23:30N 64°08' W 051°51'4 8.5
2017-Apr-21 23:00N 64°10' W 051°43'0 0.0
2017-Apr-21 22:30N 64°10' W 051°43'0 0.0
2017-Apr-21 22:00N 64°10' W 051°43'0 0.0
2017-Apr-21 21:30N 64°10' W 051°43'0 0.0
2017-Apr-21 21:00N 64°10' W 051°43'0 0.0
2017-Apr-21 20:30N 64°10' W 051°43'0 0.0
2017-Apr-21 20:00N 64°10' W 051°43'0 0.0
2017-Apr-21 19:30N 64°10' W 051°43'0 0.0
2017-Apr-21 19:00N 64°10' W 051°43'0 0.0
2017-Apr-21 18:30N 64°10' W 051°43'0 0.0
2017-Apr-21 18:00N 64°10' W 051°43'0 0.0
2017-Apr-21 17:30N 64°10' W 051°43'0 0.0
2017-Apr-21 17:01N 64°10' W 051°43'0 0.0
2017-Apr-21 16:30N 64°10' W 051°43'0 0.0
2017-Apr-21 16:00N 64°10' W 051°43'0 0.0
2017-Apr-21 15:31N 64°10' W 051°43'0 0.0
2017-Apr-21 15:00N 64°10' W 051°43'0 0.0
2017-Apr-21 14:31N 64°10' W 051°43'0 0.0
2017-Apr-21 13:31N 64°10' W 051°43'0 0.0
2017-Apr-21 13:01N 64°10' W 051°43'0 0.0
2017-Apr-21 12:30N 64°10' W 051°43'0 0.0
2017-Apr-21 12:00N 64°10' W 051°43'0 0.0
2017-Apr-21 11:30N 64°10' W 051°43'0 0.0
2017-Apr-21 11:00N 64°10' W 051°43'0 0.0
2017-Apr-21 10:30N 64°10' W 051°43'0 0.0
2017-Apr-21 10:01N 64°10' W 051°43'0 0.0
2017-Apr-21 09:31N 64°10' W 051°43'2 4.7
2017-Apr-21 09:00N 64°08' W 051°41'510.2
2017-Apr-21 08:31N 64°03' W 051°38'5 8.4
2017-Apr-21 07:57N 63°59' W 051°39'4 8.8
2017-Apr-21 07:28N 63°55' W 051°33'510.0
2017-Apr-21 07:00N 63°50' W 051°34'5 9.8
2017-Apr-21 06:31N 63°46' W 051°36'  
Track history (hours):
 
Tides and Currents Weather Stations Pressure Air Temp Water Temp Dewpoint Dewpoint Depression Visibility Wind Speed Wind Dir Waves Ship Positions

Sarfaq Ittuk

Last reported at 2017-Apr-29 14:22 UTC. Time now 2017-Apr-30 18:50 UTC.
Position N 65°54' W 053°34'.

Length 73 m; beam 11.1 m; draft 3.7 m.

Type: Passenger vessel. MMSI: 331037000.

Date/timePositionNaut miles runAvg speedWind from/ knotsBaromVisibWave heightAir tempDewpointWater temp
2017-Apr-29 14:22N 65°54' W 053°34'8 5.3
2017-Apr-29 12:50N 65°49' W 053°19'44 7.3
2017-Apr-29 06:46N 65°06' W 052°49'3 9.8
2017-Apr-29 06:30N 65°04' W 052°48'5 9.5
2017-Apr-29 06:00N 64°59' W 052°46'5 9.4
2017-Apr-29 05:30N 64°54' W 052°44'5 9.9
2017-Apr-29 05:00N 64°49' W 052°42'510.1
2017-Apr-29 04:30N 64°45' W 052°40'510.1
2017-Apr-29 04:00N 64°40' W 052°37'510.2
2017-Apr-29 03:30N 64°35' W 052°35'510.6
2017-Apr-29 03:01N 64°29' W 052°33'510.9
2017-Apr-29 02:30N 64°24' W 052°30'510.5
2017-Apr-29 02:00N 64°19' W 052°27'510.3
2017-Apr-29 01:30N 64°14' W 052°24'510.1
2017-Apr-29 01:00N 64°09' W 052°20'510.4
2017-Apr-29 00:30N 64°05' W 052°13'4 8.6
2017-Apr-29 00:00N 64°05' W 052°03'611.4
2017-Apr-28 23:30N 64°08' W 051°51'4 8.6
2017-Apr-28 23:01N 64°10' W 051°43'0 0.0
2017-Apr-28 22:31N 64°10' W 051°43'0 0.0
2017-Apr-28 22:00N 64°10' W 051°43'0 0.0
2017-Apr-28 21:30N 64°10' W 051°43'0 0.0
2017-Apr-28 21:00N 64°10' W 051°43'0 0.0
2017-Apr-28 20:30N 64°10' W 051°43'0 0.0
2017-Apr-28 20:00N 64°10' W 051°43'0 0.0
2017-Apr-28 19:31N 64°10' W 051°43'0 0.0
2017-Apr-28 19:00N 64°10' W 051°43'0 0.0
2017-Apr-28 18:30N 64°10' W 051°43'0 0.0
2017-Apr-28 18:00N 64°10' W 051°43'0 0.0
2017-Apr-28 17:30N 64°10' W 051°43'0 0.0
2017-Apr-28 17:01N 64°10' W 051°43'0 0.0
2017-Apr-28 16:30N 64°10' W 051°43'0 0.0
2017-Apr-28 16:00N 64°10' W 051°43'0 0.0
2017-Apr-28 15:30N 64°10' W 051°43'0 0.0
2017-Apr-28 15:01N 64°10' W 051°43'0 0.0
2017-Apr-28 14:00N 64°10' W 051°43'0 0.0
2017-Apr-28 13:31N 64°10' W 051°43'0 0.0
2017-Apr-28 13:00N 64°10' W 051°43'0 0.0
2017-Apr-28 12:30N 64°10' W 051°43'0 0.0
2017-Apr-28 12:00N 64°10' W 051°43'0 0.0
2017-Apr-28 11:30N 64°10' W 051°43'0 0.0
2017-Apr-28 11:00N 64°10' W 051°43'0 0.0
2017-Apr-28 10:30N 64°10' W 051°43'0 0.0
2017-Apr-28 10:00N 64°10' W 051°43'0 0.0
2017-Apr-28 09:30N 64°10' W 051°43'1 2.8
2017-Apr-28 09:00N 64°09' W 051°42'510.2
2017-Apr-28 08:31N 64°04' W 051°38'510.0
2017-Apr-28 08:00N 63°59' W 051°40'6 8.4
2017-Apr-28 07:20N 63°55' W 051°33'3 9.2
2017-Apr-28 07:00N 63°52' W 051°34'5 9.2
2017-Apr-28 06:30N 63°47' W 051°35'5 9.2
2017-Apr-28 06:00N 63°43' W 051°38'  
2017-Apr-25 14:47N 63°29' W 051°33'1510.6
2017-Apr-25 13:20N 63°44' W 051°36'412.2
2017-Apr-25 13:00N 63°48' W 051°35'612.5
2017-Apr-25 12:30N 63°54' W 051°33'612.3
2017-Apr-25 12:00N 63°59' W 051°40'612.5
2017-Apr-25 11:30N 64°05' W 051°39'510.3
2017-Apr-25 11:01N 64°10' W 051°43'0 0.0
2017-Apr-25 10:30N 64°10' W 051°43'0 0.0
2017-Apr-25 10:00N 64°10' W 051°43'0 0.0
2017-Apr-25 09:30N 64°10' W 051°43'0 0.0
2017-Apr-25 09:00N 64°10' W 051°43'2 4.1
2017-Apr-25 08:30N 64°09' W 051°47'4 8.9
2017-Apr-25 08:00N 64°07' W 051°56'510.6
2017-Apr-25 07:30N 64°04' W 052°06'510.4
2017-Apr-25 07:00N 64°07' W 052°16'611.3
2017-Apr-25 06:31N 64°12' W 052°23'611.2
2017-Apr-25 06:00N 64°17' W 052°26'611.3
2017-Apr-25 05:30N 64°23' W 052°29'611.5
2017-Apr-25 05:00N 64°28' W 052°32'611.3
2017-Apr-25 04:30N 64°34' W 052°35'611.7
2017-Apr-25 04:00N 64°40' W 052°37'611.9
2017-Apr-25 03:30N 64°46' W 052°40'611.9
2017-Apr-25 03:00N 64°51' W 052°43'611.9
2017-Apr-25 02:31N 64°57' W 052°45'612.0
2017-Apr-25 02:00N 65°03' W 052°48'611.5
2017-Apr-25 01:31N 65°09' W 052°51'  
2017-Apr-22 06:06N 65°01' W 052°47'110.6
2017-Apr-22 06:01N 65°00' W 052°47'510.3
2017-Apr-22 05:30N 64°55' W 052°44'510.4
2017-Apr-22 05:00N 64°50' W 052°42'510.4
2017-Apr-22 04:30N 64°45' W 052°40'510.5
2017-Apr-22 04:00N 64°40' W 052°37'510.3
2017-Apr-22 03:31N 64°35' W 052°35'510.4
2017-Apr-22 03:00N 64°29' W 052°33'510.5
2017-Apr-22 02:30N 64°24' W 052°30'510.4
2017-Apr-22 02:01N 64°19' W 052°27'510.5
2017-Apr-22 01:31N 64°14' W 052°24'510.7
2017-Apr-22 01:00N 64°09' W 052°20'510.8
2017-Apr-22 00:30N 64°05' W 052°12'4 8.6
2017-Apr-22 00:01N 64°05' W 052°02'611.1
2017-Apr-21 23:30N 64°08' W 051°51'4 8.5
2017-Apr-21 23:00N 64°10' W 051°43'0 0.0
2017-Apr-21 22:30N 64°10' W 051°43'0 0.0
2017-Apr-21 22:00N 64°10' W 051°43'0 0.0
2017-Apr-21 21:30N 64°10' W 051°43'0 0.0
2017-Apr-21 21:00N 64°10' W 051°43'0 0.0
2017-Apr-21 20:30N 64°10' W 051°43'0 0.0
2017-Apr-21 20:00N 64°10' W 051°43'0 0.0
2017-Apr-21 19:30N 64°10' W 051°43'0 0.0
2017-Apr-21 19:00N 64°10' W 051°43'0 0.0
2017-Apr-21 18:30N 64°10' W 051°43'0 0.0
2017-Apr-21 18:00N 64°10' W 051°43'0 0.0
2017-Apr-21 17:30N 64°10' W 051°43'0 0.0
2017-Apr-21 17:01N 64°10' W 051°43'0 0.0
2017-Apr-21 16:30N 64°10' W 051°43'0 0.0
2017-Apr-21 16:00N 64°10' W 051°43'0 0.0
2017-Apr-21 15:31N 64°10' W 051°43'0 0.0
2017-Apr-21 15:00N 64°10' W 051°43'0 0.0
2017-Apr-21 14:31N 64°10' W 051°43'0 0.0
2017-Apr-21 13:31N 64°10' W 051°43'0 0.0
2017-Apr-21 13:01N 64°10' W 051°43'0 0.0
2017-Apr-21 12:30N 64°10' W 051°43'0 0.0
2017-Apr-21 12:00N 64°10' W 051°43'0 0.0
2017-Apr-21 11:30N 64°10' W 051°43'0 0.0
2017-Apr-21 11:00N 64°10' W 051°43'0 0.0
2017-Apr-21 10:30N 64°10' W 051°43'0 0.0
2017-Apr-21 10:01N 64°10' W 051°43'0 0.0
2017-Apr-21 09:31N 64°10' W 051°43'2 4.7
2017-Apr-21 09:00N 64°08' W 051°41'510.2
2017-Apr-21 08:31N 64°03' W 051°38'5 8.4
2017-Apr-21 07:57N 63°59' W 051°39'4 8.8
2017-Apr-21 07:28N 63°55' W 051°33'510.0
2017-Apr-21 07:00N 63°50' W 051°34'5 9.8
2017-Apr-21 06:31N 63°46' W 051°36'  

Dump ship's entire track history